createdAt,value
2022-09-30T00:03:40.925Z,11.30
2022-09-30T00:07:49.557Z,10.77
2022-09-30T00:11:58.046Z,15.33
2022-09-30T00:16:08.566Z,14.77
2022-09-30T00:20:18.872Z,12.87
2022-09-30T00:24:46.790Z,9.87
2022-09-30T00:28:58.300Z,8.97
2022-09-30T00:33:06.927Z,12.00
2022-09-30T00:37:16.720Z,10.03
2022-09-30T00:41:25.348Z,10.03
2022-09-30T00:45:34.656Z,12.10
2022-09-30T00:49:43.189Z,11.53
2022-09-30T00:54:12.577Z,9.17
2022-09-30T00:58:36.488Z,12.37
2022-09-30T01:02:47.571Z,9.13
2022-09-30T01:06:56.425Z,8.80
2022-09-30T01:11:08.161Z,8.00
2022-09-30T01:15:15.501Z,8.23
2022-09-30T01:19:52.191Z,6.90
2022-09-30T01:24:15.291Z,9.60
2022-09-30T01:28:55.022Z,11.77
2022-09-30T01:33:28.222Z,10.30
2022-09-30T01:37:57.593Z,7.93
2022-09-30T01:42:43.950Z,10.73
2022-09-30T01:47:07.794Z,9.60
2022-09-30T01:51:23.100Z,10.00
2022-09-30T01:55:40.351Z,9.83
2022-09-30T01:59:54.748Z,8.27
2022-09-30T02:04:15.531Z,7.60
2022-09-30T02:08:43.820Z,7.73
2022-09-30T02:12:55.576Z,10.27
2022-09-30T02:17:15.107Z,10.97
2022-09-30T02:21:26.712Z,11.80
2022-09-30T02:25:44.524Z,12.80
2022-09-30T02:29:56.659Z,10.40
2022-09-30T02:34:19.971Z,14.30
2022-09-30T02:38:36.547Z,13.40
2022-09-30T02:42:46.521Z,12.07
2022-09-30T02:47:31.487Z,8.97
2022-09-30T02:52:00.909Z,18.67
2022-09-30T02:56:24.355Z,12.50
2022-09-30T03:00:33.154Z,12.13
2022-09-30T03:04:43.461Z,12.93
2022-09-30T03:08:53.763Z,7.97
2022-09-30T03:13:32.113Z,10.87
2022-09-30T03:17:43.743Z,12.30
2022-09-30T03:22:19.131Z,9.67
2022-09-30T03:26:39.842Z,8.67
2022-09-30T03:36:03.258Z,9.33
2022-09-30T03:40:18.840Z,8.87
2022-09-30T03:44:30.542Z,8.37
2022-09-30T03:48:41.178Z,9.90
2022-09-30T03:52:51.382Z,9.70
2022-09-30T03:57:01.958Z,7.87
2022-09-30T04:01:20.711Z,8.83
2022-09-30T04:05:29.257Z,10.27
2022-09-30T04:09:39.275Z,11.60
2022-09-30T04:13:47.898Z,10.60
2022-09-30T04:18:15.785Z,8.90
2022-09-30T04:22:26.570Z,11.83
2022-09-30T04:26:53.903Z,8.67
2022-09-30T04:31:04.349Z,11.77
2022-09-30T04:35:15.845Z,9.00
2022-09-30T04:39:24.565Z,13.37
2022-09-30T04:43:35.813Z,14.27
2022-09-30T04:47:45.532Z,12.00
2022-09-30T04:51:54.091Z,10.80
2022-09-30T04:56:02.893Z,10.23
2022-09-30T05:00:13.343Z,11.37
2022-09-30T05:04:21.968Z,11.90
2022-09-30T05:08:32.543Z,9.57
2022-09-30T05:12:41.893Z,11.20
2022-09-30T05:16:50.518Z,10.30
2022-09-30T05:20:59.380Z,10.50
2022-09-30T05:25:08.626Z,10.30
2022-09-30T05:29:17.240Z,9.73
2022-09-30T05:33:25.851Z,11.60
2022-09-30T05:37:55.246Z,10.10
2022-09-30T05:42:05.125Z,9.73
2022-09-30T05:46:15.084Z,10.17
2022-09-30T05:50:43.022Z,11.70
2022-09-30T05:54:51.587Z,10.43
2022-09-30T05:59:00.223Z,9.03
2022-09-30T06:03:08.823Z,10.57
2022-09-30T06:07:18.268Z,9.40
2022-09-30T06:11:26.929Z,11.00
2022-09-30T06:15:37.532Z,19.40
2022-09-30T06:19:46.258Z,12.97
2022-09-30T06:23:54.861Z,16.93
2022-09-30T06:28:03.696Z,12.67
2022-09-30T06:32:13.348Z,16.27
2022-09-30T06:36:21.874Z,17.23
2022-09-30T06:40:30.421Z,18.10
2022-09-30T06:44:51.437Z,17.00
2022-09-30T06:48:55.016Z,17.97
2022-09-30T06:53:06.293Z,21.93
2022-09-30T06:57:15.565Z,23.57
2022-09-30T07:01:28.083Z,22.20
2022-09-30T07:05:42.118Z,26.87
2022-09-30T07:09:50.516Z,24.73
2022-09-30T07:13:59.296Z,18.33
2022-09-30T07:18:08.437Z,19.43
2022-09-30T07:22:33.698Z,20.03
2022-09-30T07:26:42.386Z,19.87
2022-09-30T07:30:59.810Z,21.03
2022-09-30T07:35:02.407Z,20.57
2022-09-30T07:39:11.549Z,21.17
2022-09-30T07:43:21.508Z,24.70
2022-09-30T07:47:30.138Z,22.23
2022-09-30T07:51:43.653Z,21.13
2022-09-30T07:56:12.483Z,18.60
2022-09-30T08:04:33.329Z,22.23
2022-09-30T08:08:43.337Z,19.90
2022-09-30T08:13:13.627Z,20.40
2022-09-30T08:17:22.251Z,19.20
2022-09-30T08:21:33.030Z,19.30
2022-09-30T08:25:41.634Z,18.40
2022-09-30T08:29:55.248Z,15.63
2022-09-30T08:34:03.079Z,16.13
2022-09-30T08:38:12.259Z,20.03
2022-09-30T08:42:55.383Z,17.53
2022-09-30T08:47:18.424Z,22.97
2022-09-30T08:51:36.767Z,21.07
2022-09-30T08:55:47.196Z,22.10
2022-09-30T09:00:03.884Z,17.87
2022-09-30T09:04:16.563Z,26.13
2022-09-30T09:08:47.234Z,22.50
2022-09-30T09:13:24.549Z,24.10
2022-09-30T09:17:58.623Z,24.80
2022-09-30T09:22:01.972Z,24.98
2022-09-30T09:26:14.561Z,20.33
2022-09-30T09:30:25.398Z,24.17
2022-09-30T09:34:38.245Z,19.37
2022-09-30T09:39:08.911Z,19.07
2022-09-30T09:43:36.298Z,21.33
2022-09-30T09:47:47.382Z,22.70
2022-09-30T09:52:03.415Z,21.67
2022-09-30T09:56:19.550Z,18.73
2022-09-30T10:00:47.831Z,22.13
2022-09-30T10:05:04.503Z,20.20
2022-09-30T10:09:37.494Z,29.30
2022-09-30T10:13:47.091Z,19.93
2022-09-30T10:17:59.510Z,18.30
2022-09-30T10:22:15.226Z,22.80
2022-09-30T10:30:43.618Z,17.23
2022-09-30T10:35:07.805Z,20.80
2022-09-30T10:39:31.674Z,20.70
2022-09-30T10:43:49.076Z,20.50
2022-09-30T10:47:58.782Z,15.17
2022-09-30T10:52:09.355Z,15.90
2022-09-30T10:56:37.375Z,16.50
2022-09-30T11:00:47.153Z,16.53
2022-09-30T11:05:05.935Z,19.07
2022-09-30T11:09:20.478Z,15.43
2022-09-30T11:13:44.165Z,15.73
2022-09-30T11:18:05.316Z,14.70
2022-09-30T11:22:32.027Z,17.00
2022-09-30T11:27:00.690Z,13.10
2022-09-30T11:31:18.323Z,15.50
2022-09-30T11:35:35.923Z,18.70
2022-09-30T11:39:54.330Z,13.53
2022-09-30T11:44:17.634Z,12.40
2022-09-30T11:48:41.410Z,11.27
2022-09-30T11:53:11.148Z,12.80
2022-09-30T11:57:34.705Z,10.40
2022-09-30T12:01:50.022Z,8.53
2022-09-30T12:06:04.463Z,10.30
2022-09-30T12:10:25.326Z,11.50
2022-09-30T12:14:40.454Z,10.03
2022-09-30T12:18:56.293Z,13.90
2022-09-30T12:23:23.057Z,10.00
2022-09-30T12:27:34.829Z,6.67
2022-09-30T12:31:59.795Z,7.60
2022-09-30T12:36:27.797Z,5.67
2022-09-30T12:40:51.579Z,6.37
2022-09-30T12:45:05.690Z,6.20
2022-09-30T12:49:19.206Z,8.40
2022-09-30T12:53:48.788Z,7.40
2022-09-30T12:58:02.397Z,7.90
2022-09-30T13:02:14.136Z,7.00
2022-09-30T13:06:23.989Z,6.93
2022-09-30T13:10:41.569Z,6.60
2022-09-30T13:14:50.215Z,7.30
2022-09-30T13:19:02.832Z,8.73
2022-09-30T13:23:14.730Z,8.10
2022-09-30T13:27:34.303Z,6.60
2022-09-30T13:31:56.599Z,6.63
2022-09-30T13:36:10.160Z,5.70
2022-09-30T13:40:37.547Z,5.20
2022-09-30T13:44:40.414Z,7.03
2022-09-30T13:49:26.516Z,6.15
2022-09-30T13:53:40.949Z,5.73
2022-09-30T13:58:07.788Z,5.90
2022-09-30T14:02:22.631Z,4.93
2022-09-30T14:06:44.746Z,5.00
2022-09-30T14:11:22.252Z,5.40
2022-09-30T14:15:56.100Z,4.70
2022-09-30T14:20:16.991Z,5.40
2022-09-30T14:24:28.657Z,10.50
2022-09-30T14:28:40.319Z,5.13
2022-09-30T14:33:21.775Z,5.60
2022-09-30T14:37:33.767Z,3.83
2022-09-30T14:41:54.371Z,4.77
2022-09-30T14:46:30.436Z,6.40
2022-09-30T14:50:54.148Z,4.33
2022-09-30T14:55:04.369Z,4.23
2022-09-30T14:59:18.774Z,3.33
2022-09-30T15:03:28.554Z,5.30
2022-09-30T15:07:38.765Z,5.30
2022-09-30T15:11:48.495Z,3.87
2022-09-30T15:15:57.803Z,5.00
2022-09-30T15:20:33.151Z,2.77
2022-09-30T15:24:42.662Z,3.80
2022-09-30T15:28:51.874Z,3.13
2022-09-30T15:33:03.583Z,4.50
2022-09-30T15:37:23.949Z,3.70
2022-09-30T15:41:41.382Z,3.93
2022-09-30T15:45:52.337Z,2.93
2022-09-30T15:50:02.413Z,2.97
2022-09-30T15:54:17.429Z,2.63
2022-09-30T15:58:42.238Z,2.93
2022-09-30T16:02:51.580Z,3.90
2022-09-30T16:07:03.180Z,3.07
2022-09-30T16:11:23.721Z,3.00
2022-09-30T16:15:34.058Z,3.70
2022-09-30T16:19:44.480Z,3.27
2022-09-30T16:23:54.515Z,2.90
2022-09-30T16:28:06.997Z,6.60
2022-09-30T16:32:15.932Z,4.30
2022-09-30T16:36:24.495Z,2.93
2022-09-30T16:40:36.536Z,2.87
2022-09-30T16:44:45.273Z,2.40
2022-09-30T16:48:54.415Z,2.60
2022-09-30T16:53:02.994Z,3.27
2022-09-30T16:57:14.716Z,4.93
2022-09-30T17:01:25.432Z,2.73
2022-09-30T17:05:34.069Z,3.13
2022-09-30T17:09:43.173Z,2.50
2022-09-30T17:13:51.721Z,3.53
2022-09-30T17:18:02.883Z,4.17
2022-09-30T17:22:11.507Z,4.17
2022-09-30T17:26:20.077Z,2.53
2022-09-30T17:30:28.592Z,2.90
2022-09-30T17:34:37.276Z,2.80
2022-09-30T17:38:45.864Z,3.53
2022-09-30T17:43:11.164Z,2.90
2022-09-30T17:47:22.169Z,5.87
2022-09-30T17:51:31.101Z,3.20
2022-09-30T17:55:40.444Z,2.83
2022-09-30T18:14:23.698Z,3.50
2022-09-30T18:18:32.536Z,3.90
2022-09-30T18:22:41.364Z,3.07
2022-09-30T18:26:49.941Z,2.90
2022-09-30T18:31:00.039Z,3.17
2022-09-30T18:35:11.118Z,6.07
2022-09-30T18:39:19.803Z,4.00
2022-09-30T18:43:28.712Z,4.30
2022-09-30T18:47:37.281Z,5.13
2022-09-30T18:51:45.854Z,5.40
2022-09-30T18:55:54.427Z,6.50
2022-09-30T19:00:03.306Z,3.80
2022-09-30T19:04:12.522Z,4.27
2022-09-30T19:08:21.549Z,4.27
2022-09-30T19:12:40.282Z,4.73
2022-09-30T19:16:49.160Z,3.93
2022-09-30T19:20:57.703Z,5.77
2022-09-30T19:25:09.982Z,4.23
2022-09-30T19:29:18.639Z,3.90
2022-09-30T19:33:27.677Z,4.60
2022-09-30T19:37:36.441Z,4.90
2022-09-30T19:41:46.278Z,4.43
2022-09-30T19:46:01.219Z,3.80
2022-09-30T19:50:10.163Z,3.50
2022-09-30T19:54:22.215Z,5.70
2022-09-30T19:58:36.325Z,5.60
2022-09-30T20:02:44.970Z,3.53
2022-09-30T20:06:53.726Z,3.67
2022-09-30T20:11:05.010Z,3.10
2022-09-30T20:15:18.265Z,3.47
2022-09-30T20:19:27.793Z,3.67
2022-09-30T20:23:38.817Z,4.23
2022-09-30T20:27:51.976Z,4.90
2022-09-30T20:31:58.399Z,4.80
2022-09-30T20:36:08.777Z,3.93
2022-09-30T20:40:17.450Z,3.43
2022-09-30T20:44:26.007Z,3.53
2022-09-30T20:48:36.731Z,3.73
2022-09-30T20:52:45.314Z,4.97
2022-09-30T20:57:08.902Z,3.97
2022-09-30T21:01:14.080Z,3.27
2022-09-30T21:05:22.781Z,3.17
2022-09-30T21:09:33.007Z,3.50
2022-09-30T21:13:46.159Z,6.37
2022-09-30T21:17:55.372Z,9.20
2022-09-30T21:22:03.952Z,8.70
2022-09-30T21:26:15.566Z,5.77
2022-09-30T21:30:24.409Z,4.70
2022-09-30T21:34:34.073Z,4.80
2022-09-30T21:38:42.645Z,4.77
2022-09-30T21:42:51.268Z,3.63
2022-09-30T21:46:59.831Z,5.03
2022-09-30T21:51:09.831Z,4.40
2022-09-30T21:55:18.928Z,6.70
2022-09-30T21:59:27.817Z,6.30
2022-09-30T22:03:40.272Z,4.43
2022-09-30T22:07:49.696Z,3.63
2022-09-30T22:11:58.295Z,3.90
2022-09-30T22:16:07.707Z,6.50
2022-09-30T22:20:16.364Z,3.63
2022-09-30T22:24:24.923Z,7.30
2022-09-30T22:28:33.491Z,9.40
2022-09-30T22:32:42.064Z,4.60
2022-09-30T22:37:09.103Z,4.40
2022-09-30T22:41:18.244Z,4.40
2022-09-30T22:45:26.952Z,5.00
2022-09-30T22:49:36.180Z,3.77
2022-09-30T22:53:44.745Z,4.83
2022-09-30T22:57:53.323Z,4.60
2022-09-30T23:02:01.974Z,5.23
2022-09-30T23:06:10.712Z,4.70
2022-09-30T23:10:19.290Z,4.90
2022-09-30T23:14:28.037Z,6.07
2022-09-30T23:18:36.956Z,4.20
2022-09-30T23:22:47.086Z,5.00
2022-09-30T23:26:55.669Z,4.60
2022-09-30T23:31:08.840Z,5.03
2022-09-30T23:35:17.410Z,5.10
2022-09-30T23:39:26.043Z,5.43
2022-09-30T23:43:35.075Z,4.23
2022-09-30T23:47:47.374Z,4.53
2022-09-30T23:51:55.933Z,4.90
2022-09-30T23:56:13.309Z,6.10
